Etusivu
METAR-TAF:

METAR-TAF

Lentoasemat :

Mildenhall, Englanti

Leveyspiiri: 52-22N, Pituuspiiri: 000-29E, korkeus merenpinnasta: 10 m

Tämänhetkinen sää

Tämä raportti tehtiin 1 tunti ja 7 minuuttia sitten, kello 18.56 UTC
Tuuli 6 kn kaakosta
Lämpötila 22°C
Kosteus 57%
Ilmanpaine 1022 hPa
Näkyvyys 10 km tai enemmän
selkeää

METAR: EGUN 231856Z 14006KT 9999 CLR 22/13 A3017 RMK AO2A SLPNO T02210134 .

Aika: 21:03 (20:03 UTC)

Sääennuste

Tämä raportti tehtiin 8 tuntia ja 3 minuuttia sitten, kello 12.00 UTC
Ennuste voimassa 23. päivästä klo 12 UTC - 24. päivään klo 18 UTC
Tuuli 9 kn etelästä
Näkyvyys 10 km tai enemmän
Muutamia pilviä 5000 ft:n korkeudessa
Hajanaisia pilviä 20000 ft:n korkeudessa

TAF: EGUN 231200Z 2312/2418 17009KT 9999 FEW050 SCT200 QNH3001INS TX26/2314Z TN13/2404Z

Säähavainnot ja -ennusteet yli 4000 lentoasemalta (METAR- ja TAF-raportit).

Käytössä olevat sääasemat on merkitty karttaan keltaisilla ja punaisilla pisteillä.

Aseta hiiri pisteen päälle nähdäksesi sääaseman nimen.

Klikkaa sitten nähdäksesi säähavainnot ja -ennusteet.

Kartan vaihtaminen: klikkaa mustalla rastilla varustettuja vihreitä pisteitä, niin voit zoomata sisään; viivalla varustettua vihreää pistettä, niin voit zoomata ulos tai vihreitä nuolia, niin pääset viereisille kartoille.


METAR-TAF: